createdAt,value
2022-11-04T00:02:01.880Z,9.30
2022-11-04T00:04:28.845Z,6.22
2022-11-04T00:06:56.826Z,6.45
2022-11-04T00:09:29.353Z,6.90
2022-11-04T00:12:15.893Z,6.13
2022-11-04T00:14:42.895Z,4.40
2022-11-04T00:17:19.484Z,6.68
2022-11-04T00:22:51.220Z,8.27
2022-11-04T00:25:37.141Z,7.95
2022-11-04T00:28:28.034Z,8.20
2022-11-04T00:30:56.540Z,6.57
2022-11-04T00:33:26.299Z,5.47
2022-11-04T00:35:56.059Z,5.15
2022-11-04T00:38:24.443Z,3.97
2022-11-04T00:40:51.397Z,4.35
2022-11-04T00:43:18.188Z,5.63
2022-11-04T00:45:45.218Z,4.90
2022-11-04T00:48:12.208Z,3.88
2022-11-04T00:50:39.602Z,5.10
2022-11-04T00:53:06.706Z,7.82
2022-11-04T00:55:33.715Z,5.03
2022-11-04T00:58:00.574Z,6.50
2022-11-04T01:00:27.517Z,11.65
2022-11-04T01:02:54.399Z,7.10
2022-11-04T01:05:21.283Z,6.60
2022-11-04T01:07:48.079Z,7.38
2022-11-04T01:10:14.795Z,7.72
2022-11-04T01:12:41.556Z,5.40
2022-11-04T01:15:08.714Z,4.85
2022-11-04T01:17:35.542Z,6.00
2022-11-04T01:20:02.273Z,7.15
2022-11-04T01:22:29.150Z,7.22
2022-11-04T01:24:55.897Z,7.05
2022-11-04T01:27:22.696Z,5.10
2022-11-04T01:29:49.421Z,10.35
2022-11-04T01:32:16.200Z,5.50
2022-11-04T01:34:43.686Z,6.65
2022-11-04T01:37:10.674Z,10.57
2022-11-04T01:39:37.387Z,6.97
2022-11-04T01:44:49.655Z,5.78
2022-11-04T01:47:21.894Z,9.95
2022-11-04T01:49:54.021Z,5.85
2022-11-04T01:52:47.840Z,4.18
2022-11-04T01:55:20.559Z,7.45
2022-11-04T01:57:49.769Z,7.78
2022-11-04T02:00:17.508Z,11.75
2022-11-04T02:02:53.824Z,12.82
2022-11-04T02:05:21.725Z,9.43
2022-11-04T02:07:53.119Z,4.57
2022-11-04T02:10:23.651Z,8.68
2022-11-04T02:12:51.046Z,7.50
2022-11-04T02:15:40.093Z,8.23
2022-11-04T02:18:25.154Z,8.65
2022-11-04T02:21:13.736Z,7.40
2022-11-04T02:23:43.378Z,8.55
2022-11-04T02:26:19.042Z,8.43
2022-11-04T02:29:06.729Z,13.10
2022-11-04T02:32:02.544Z,9.15
2022-11-04T02:34:41.161Z,14.38
2022-11-04T02:37:32.498Z,18.35
2022-11-04T02:40:21.130Z,14.73
2022-11-04T02:43:09.955Z,11.00
2022-11-04T02:45:42.189Z,12.77
2022-11-04T02:48:21.333Z,11.93
2022-11-04T02:51:03.671Z,11.48
2022-11-04T02:53:39.501Z,13.77
2022-11-04T02:56:08.410Z,8.90
2022-11-04T02:58:45.935Z,11.30
2022-11-04T03:01:17.357Z,11.63
2022-11-04T03:03:51.195Z,10.95
2022-11-04T03:06:22.023Z,9.95
2022-11-04T03:08:52.275Z,12.55
2022-11-04T03:11:23.740Z,8.57
2022-11-04T03:13:57.868Z,11.57
2022-11-04T03:16:52.990Z,8.20
2022-11-04T03:19:25.689Z,10.30
2022-11-04T03:21:59.077Z,13.43
2022-11-04T03:24:26.412Z,11.30
2022-11-04T03:27:02.043Z,10.95
2022-11-04T03:29:28.845Z,11.45
2022-11-04T03:32:27.469Z,11.32
2022-11-04T03:34:54.377Z,14.07
2022-11-04T03:37:21.078Z,12.38
2022-11-04T03:39:47.968Z,8.15
2022-11-04T03:42:22.411Z,10.30
2022-11-04T03:44:54.547Z,12.20
2022-11-04T03:47:24.686Z,8.90
2022-11-04T03:49:57.856Z,8.77
2022-11-04T03:52:24.755Z,11.43
2022-11-04T03:54:51.453Z,10.98
2022-11-04T03:57:34.583Z,12.60
2022-11-04T04:02:59.921Z,9.23
2022-11-04T04:08:07.402Z,10.93
2022-11-04T04:10:42.679Z,16.30
2022-11-04T04:13:37.081Z,8.93
2022-11-04T04:16:12.571Z,7.95
2022-11-04T04:18:46.380Z,8.20
2022-11-04T04:21:22.148Z,11.70
2022-11-04T04:24:10.061Z,9.43
2022-11-04T04:26:58.378Z,11.63
2022-11-04T04:29:28.039Z,13.90
2022-11-04T04:31:57.946Z,11.93
2022-11-04T04:34:33.451Z,8.88
2022-11-04T04:37:27.589Z,9.82
2022-11-04T04:40:22.190Z,10.07
2022-11-04T04:43:23.837Z,8.68
2022-11-04T04:45:55.783Z,9.80
2022-11-04T04:48:22.528Z,7.45
2022-11-04T04:50:52.830Z,6.60
2022-11-04T04:53:19.614Z,6.55
2022-11-04T04:55:46.314Z,7.50
2022-11-04T04:58:13.142Z,6.80
2022-11-04T05:00:39.924Z,8.43
2022-11-04T05:03:07.108Z,11.32
2022-11-04T05:05:35.990Z,9.23
2022-11-04T05:08:07.889Z,8.43
2022-11-04T05:10:35.274Z,8.55
2022-11-04T05:13:20.905Z,5.88
2022-11-04T05:15:47.716Z,10.35
2022-11-04T05:18:14.528Z,9.38
2022-11-04T05:20:41.322Z,6.53
2022-11-04T05:23:08.691Z,11.32
2022-11-04T05:25:35.605Z,8.32
2022-11-04T05:28:02.797Z,8.23
2022-11-04T05:30:29.785Z,9.85
2022-11-04T05:32:59.912Z,10.25
2022-11-04T05:35:30.798Z,7.18
2022-11-04T05:37:57.565Z,16.55
2022-11-04T05:40:24.800Z,10.55
2022-11-04T05:42:51.757Z,11.32
2022-11-04T05:45:18.707Z,7.03
2022-11-04T05:47:45.538Z,8.07
2022-11-04T05:50:12.428Z,11.88
2022-11-04T05:52:39.201Z,7.00
2022-11-04T05:55:06.468Z,8.25
2022-11-04T05:57:33.207Z,7.80
2022-11-04T06:00:00.012Z,8.63
2022-11-04T06:02:26.880Z,6.45
2022-11-04T06:04:53.796Z,10.88
2022-11-04T06:07:20.533Z,8.50
2022-11-04T06:09:47.294Z,7.07
2022-11-04T06:12:16.316Z,7.68
2022-11-04T06:14:43.733Z,8.00
2022-11-04T06:17:23.091Z,7.15
2022-11-04T06:19:50.277Z,7.22
2022-11-04T06:22:19.272Z,6.05
2022-11-04T06:24:46.231Z,6.45
2022-11-04T06:27:13.081Z,11.75
2022-11-04T06:29:41.229Z,4.07
2022-11-04T06:32:18.850Z,6.55
2022-11-04T06:34:46.463Z,6.50
2022-11-04T06:37:13.357Z,8.38
2022-11-04T06:39:40.499Z,9.50
2022-11-04T06:42:07.570Z,7.15
2022-11-04T06:44:35.025Z,10.02
2022-11-04T06:47:01.977Z,10.98
2022-11-04T06:49:28.838Z,9.38
2022-11-04T06:51:55.531Z,4.80
2022-11-04T06:54:22.441Z,8.88
2022-11-04T06:56:49.402Z,11.93
2022-11-04T06:59:18.474Z,9.38
2022-11-04T07:01:46.584Z,5.28
2022-11-04T07:04:13.610Z,5.30
2022-11-04T07:06:44.276Z,6.35
2022-11-04T07:09:14.021Z,5.93
2022-11-04T07:11:41.730Z,4.93
2022-11-04T07:14:09.501Z,5.95
2022-11-04T07:16:36.256Z,6.70
2022-11-04T07:19:03.677Z,5.47
2022-11-04T07:21:30.529Z,4.97
2022-11-04T07:23:57.711Z,9.70
2022-11-04T07:26:24.520Z,4.18
2022-11-04T07:28:51.331Z,10.30
2022-11-04T07:31:18.639Z,8.15
2022-11-04T07:33:50.158Z,9.02
2022-11-04T07:36:17.928Z,5.97
2022-11-04T07:38:45.688Z,5.32
2022-11-04T07:41:15.381Z,8.02
2022-11-04T07:43:42.418Z,9.52
2022-11-04T07:46:13.116Z,7.72
2022-11-04T07:51:09.228Z,3.38
2022-11-04T07:53:36.928Z,7.05
2022-11-04T07:56:05.832Z,12.63
2022-11-04T07:58:33.535Z,7.68
2022-11-04T08:01:08.315Z,7.72
2022-11-04T08:03:36.811Z,9.05
2022-11-04T08:06:05.714Z,5.60
2022-11-04T08:08:32.751Z,8.98
2022-11-04T08:11:16.876Z,8.57
2022-11-04T08:13:46.004Z,5.95
2022-11-04T08:16:19.010Z,7.32
2022-11-04T08:18:47.216Z,5.97
2022-11-04T08:21:15.136Z,8.40
2022-11-04T08:23:42.364Z,6.82
2022-11-04T08:26:11.394Z,5.53
2022-11-04T08:28:38.614Z,5.88
2022-11-04T08:31:09.029Z,4.95
2022-11-04T08:33:36.683Z,8.27
2022-11-04T08:36:17.744Z,8.10
2022-11-04T08:38:45.726Z,5.60
2022-11-04T08:41:13.992Z,7.53
2022-11-04T08:43:41.344Z,4.80
2022-11-04T08:46:10.275Z,7.00
2022-11-04T08:48:39.449Z,4.47
2022-11-04T08:51:12.543Z,7.35
2022-11-04T08:53:39.550Z,7.60
2022-11-04T08:56:27.977Z,6.20
2022-11-04T08:58:54.878Z,6.93
2022-11-04T09:01:22.693Z,3.92
2022-11-04T09:03:50.268Z,11.45
2022-11-04T09:06:38.979Z,3.25
2022-11-04T09:09:08.725Z,5.55
2022-11-04T09:11:40.233Z,4.25
2022-11-04T09:14:07.060Z,2.67
2022-11-04T09:16:35.670Z,3.72
2022-11-04T09:19:02.591Z,3.20
2022-11-04T09:21:29.403Z,4.95
2022-11-04T09:23:56.653Z,2.03
2022-11-04T09:26:24.837Z,4.32
2022-11-04T09:28:58.735Z,2.20
2022-11-04T09:31:28.161Z,3.13
2022-11-04T09:33:56.111Z,2.35
2022-11-04T09:36:23.906Z,3.03
2022-11-04T09:38:50.931Z,4.15
2022-11-04T09:41:51.444Z,1.55
2022-11-04T09:45:07.330Z,4.68
2022-11-04T09:47:34.766Z,2.90
2022-11-04T09:50:03.680Z,1.38
2022-11-04T09:52:39.444Z,2.10
2022-11-04T09:55:29.609Z,2.72
2022-11-04T09:57:58.919Z,1.55
2022-11-04T10:00:29.848Z,2.70
2022-11-04T10:03:09.537Z,2.95
2022-11-04T10:05:47.911Z,4.00
2022-11-04T10:08:23.559Z,2.42
2022-11-04T10:11:07.323Z,3.30
2022-11-04T10:13:53.421Z,3.28
2022-11-04T10:16:48.057Z,3.10
2022-11-04T10:19:42.809Z,2.10
2022-11-04T10:22:18.389Z,2.50
2022-11-04T10:25:14.145Z,3.08
2022-11-04T10:27:45.356Z,3.50
2022-11-04T10:30:19.864Z,2.38
2022-11-04T10:32:53.267Z,1.95
2022-11-04T10:35:29.415Z,3.13
2022-11-04T10:38:01.839Z,1.80
2022-11-04T10:40:36.603Z,0.88
2022-11-04T10:43:08.975Z,2.70
2022-11-04T10:46:14.292Z,2.85
2022-11-04T10:49:22.213Z,1.10
2022-11-04T10:51:47.513Z,1.60
2022-11-04T10:54:14.458Z,2.38
2022-11-04T10:56:53.188Z,2.50
2022-11-04T10:59:30.703Z,3.17
2022-11-04T11:02:00.595Z,1.35
2022-11-04T11:04:33.597Z,3.38
2022-11-04T11:07:09.923Z,1.58
2022-11-04T11:09:43.371Z,1.85
2022-11-04T11:12:48.850Z,1.50
2022-11-04T11:22:53.421Z,1.85
2022-11-04T11:34:09.491Z,2.00
2022-11-04T11:36:51.633Z,1.33
2022-11-04T11:39:57.378Z,1.63
2022-11-04T11:42:33.043Z,1.42
2022-11-04T12:00:54.677Z,1.75
2022-11-04T12:09:53.523Z,2.65
2022-11-04T12:12:31.227Z,5.30
2022-11-04T12:15:06.993Z,4.90
2022-11-04T12:17:58.840Z,5.68
2022-11-04T12:20:50.259Z,4.40
2022-11-04T12:23:35.095Z,11.60
2022-11-04T12:26:33.242Z,4.65
2022-11-04T12:29:55.749Z,8.60
2022-11-04T12:33:01.151Z,6.75
2022-11-04T12:35:38.275Z,7.28
2022-11-04T12:38:32.090Z,5.88
2022-11-04T12:44:25.396Z,6.00
2022-11-04T12:47:22.253Z,6.47
2022-11-04T12:50:04.534Z,6.07
2022-11-04T12:52:58.255Z,7.70
2022-11-04T12:55:51.774Z,7.43
2022-11-04T12:58:27.172Z,5.45
2022-11-04T13:01:30.779Z,9.75
2022-11-04T13:04:09.389Z,8.90
2022-11-04T13:06:42.400Z,2.85
2022-11-04T13:09:12.421Z,8.02
2022-11-04T13:11:50.792Z,6.35
2022-11-04T13:14:29.787Z,7.68
2022-11-04T13:17:20.841Z,6.20
2022-11-04T13:19:56.702Z,7.35
2022-11-04T13:22:34.600Z,3.70
2022-11-04T13:25:18.034Z,7.82
2022-11-04T13:27:51.922Z,7.20
2022-11-04T13:30:26.095Z,11.98
2022-11-04T13:33:00.867Z,5.03
2022-11-04T13:35:34.881Z,10.45
2022-11-04T13:38:16.725Z,6.53
2022-11-04T13:45:04.587Z,8.85
2022-11-04T13:47:37.618Z,9.80
2022-11-04T13:50:07.166Z,5.18
2022-11-04T13:52:52.554Z,7.43
2022-11-04T13:55:21.665Z,9.25
2022-11-04T13:58:00.419Z,6.88
2022-11-04T14:00:29.585Z,7.30
2022-11-04T14:03:36.632Z,5.38
2022-11-04T14:06:09.251Z,6.25
2022-11-04T14:08:36.942Z,11.02
2022-11-04T14:11:11.019Z,8.95
2022-11-04T14:13:44.279Z,8.80
2022-11-04T14:16:25.441Z,8.88
2022-11-04T14:18:54.236Z,6.35
2022-11-04T14:21:27.633Z,7.35
2022-11-04T14:24:14.965Z,7.38
2022-11-04T14:26:54.533Z,6.18
2022-11-04T14:29:26.294Z,9.02
2022-11-04T14:32:00.853Z,6.68
2022-11-04T14:35:05.872Z,5.80
2022-11-04T14:37:37.179Z,8.63
2022-11-04T14:40:17.115Z,10.13
2022-11-04T14:42:50.386Z,6.88
2022-11-04T14:45:32.333Z,6.50
2022-11-04T14:48:15.981Z,9.90
2022-11-04T14:50:46.446Z,7.45
2022-11-04T14:53:40.098Z,7.55
2022-11-04T14:56:23.201Z,7.32
2022-11-04T14:59:23.475Z,7.82
2022-11-04T15:01:54.411Z,7.57
2022-11-04T15:04:51.371Z,12.77
2022-11-04T15:07:41.494Z,9.40
2022-11-04T15:10:19.129Z,7.32
2022-11-04T15:12:58.858Z,7.95
2022-11-04T15:15:47.071Z,10.20
2022-11-04T15:18:25.556Z,6.43
2022-11-04T15:21:01.177Z,9.38
2022-11-04T15:23:33.320Z,7.35
2022-11-04T15:26:31.960Z,7.57
2022-11-04T15:29:18.161Z,9.82
2022-11-04T15:32:25.464Z,8.25
2022-11-04T15:34:54.614Z,12.73
2022-11-04T15:37:30.005Z,10.52
2022-11-04T15:39:58.523Z,8.82
2022-11-04T15:42:37.281Z,11.70
2022-11-04T15:45:22.703Z,8.30
2022-11-04T15:48:32.515Z,6.85
2022-11-04T15:51:06.980Z,10.30
2022-11-04T15:53:48.140Z,8.23
2022-11-04T15:56:31.489Z,7.20
2022-11-04T15:59:12.472Z,10.75
2022-11-04T16:01:54.898Z,8.35
2022-11-04T16:09:19.894Z,9.55
2022-11-04T16:12:41.719Z,8.63
2022-11-04T17:38:50.078Z,9.18
2022-11-04T17:41:39.288Z,10.18
2022-11-04T17:53:36.346Z,12.70
2022-11-04T17:56:19.402Z,11.50
2022-11-04T17:58:47.459Z,11.93
2022-11-04T18:01:16.754Z,11.52
2022-11-04T18:03:43.798Z,10.60
2022-11-04T18:06:11.163Z,7.63
2022-11-04T18:08:38.981Z,7.57
2022-11-04T18:11:09.080Z,8.50
2022-11-04T18:13:38.016Z,7.93
2022-11-04T18:16:12.117Z,5.20
2022-11-04T18:18:40.202Z,7.18
2022-11-04T18:21:09.194Z,10.75
2022-11-04T18:23:36.343Z,8.70
2022-11-04T18:26:09.200Z,5.05
2022-11-04T18:28:39.411Z,6.35
2022-11-04T18:31:12.104Z,8.30
2022-11-04T18:33:42.984Z,6.57
2022-11-04T18:36:10.199Z,8.32
2022-11-04T18:38:37.158Z,8.10
2022-11-04T18:41:04.090Z,9.00
2022-11-04T18:43:31.191Z,8.15
2022-11-04T18:45:58.388Z,6.15
2022-11-04T18:48:25.607Z,7.22
2022-11-04T18:50:52.719Z,9.35
2022-11-04T18:53:25.819Z,5.63
2022-11-04T18:55:53.952Z,5.45
2022-11-04T18:58:21.216Z,9.45
2022-11-04T19:00:50.309Z,7.55
2022-11-04T19:03:17.266Z,3.17
2022-11-04T19:05:44.482Z,4.72
2022-11-04T19:08:11.622Z,5.07
2022-11-04T19:10:57.947Z,8.93
2022-11-04T19:16:34.209Z,7.45
2022-11-04T19:19:05.314Z,10.48
2022-11-04T19:21:33.363Z,10.73
2022-11-04T19:24:00.712Z,6.47
2022-11-04T19:26:30.923Z,6.63
2022-11-04T19:28:58.212Z,6.35
2022-11-04T19:31:27.412Z,8.05
2022-11-04T19:33:57.557Z,11.05
2022-11-04T19:36:25.554Z,12.57
2022-11-04T19:38:55.838Z,10.50
2022-11-04T19:41:43.053Z,9.95
2022-11-04T19:44:12.712Z,13.50
2022-11-04T19:46:40.721Z,9.15
2022-11-04T19:49:08.662Z,8.73
2022-11-04T19:51:37.220Z,8.25
2022-11-04T19:54:04.662Z,9.90
2022-11-04T19:56:33.796Z,10.13
2022-11-04T19:59:05.831Z,12.73
2022-11-04T20:04:25.356Z,9.05
2022-11-04T20:06:52.318Z,11.90
2022-11-04T20:09:22.507Z,9.43
2022-11-04T20:12:08.013Z,8.13
2022-11-04T20:14:36.211Z,11.02
2022-11-04T20:17:05.703Z,10.90
2022-11-04T20:19:33.080Z,6.68
2022-11-04T20:22:00.124Z,8.00
2022-11-04T20:24:27.446Z,5.65
2022-11-04T20:26:54.322Z,7.47
2022-11-04T20:29:21.305Z,7.32
2022-11-04T20:31:48.204Z,7.07
2022-11-04T20:34:15.745Z,5.90
2022-11-04T20:36:43.805Z,9.80
2022-11-04T20:39:16.497Z,3.85
2022-11-04T20:41:44.557Z,5.20
2022-11-04T20:44:12.900Z,3.33
2022-11-04T20:46:40.733Z,8.25
2022-11-04T20:49:08.831Z,7.88
2022-11-04T20:51:38.667Z,3.97
2022-11-04T20:54:07.201Z,7.15
2022-11-04T20:56:37.109Z,10.20
2022-11-04T20:59:04.885Z,9.15
2022-11-04T21:01:37.918Z,8.15
2022-11-04T21:04:15.089Z,7.90
2022-11-04T21:06:42.869Z,5.40
2022-11-04T21:09:12.756Z,7.78
2022-11-04T21:11:40.611Z,5.55
2022-11-04T21:14:09.976Z,5.38
2022-11-04T21:16:37.439Z,7.20
2022-11-04T21:19:05.667Z,7.22
2022-11-04T21:21:33.632Z,9.40
2022-11-04T21:24:04.427Z,9.60
2022-11-04T21:26:36.160Z,4.82
2022-11-04T21:29:07.759Z,5.20
2022-11-04T21:31:37.173Z,7.82
2022-11-04T21:34:17.175Z,3.88
2022-11-04T21:36:56.410Z,5.75
2022-11-04T21:42:47.292Z,3.08
2022-11-04T21:45:15.856Z,5.22
2022-11-04T21:47:42.701Z,3.42
2022-11-04T21:50:15.132Z,4.55
2022-11-04T21:52:45.989Z,4.18
2022-11-04T21:55:13.087Z,4.80
2022-11-04T21:58:10.620Z,5.50
2022-11-04T22:00:37.699Z,7.05
2022-11-04T22:03:04.729Z,6.45
2022-11-04T22:05:31.899Z,5.05
2022-11-04T22:08:16.700Z,5.63
2022-11-04T22:10:44.272Z,5.45
2022-11-04T22:13:11.427Z,5.25
2022-11-04T22:15:57.709Z,1.92
2022-11-04T22:18:25.986Z,2.63
2022-11-04T22:20:53.384Z,1.83
2022-11-04T22:23:20.299Z,2.97
2022-11-04T22:25:50.074Z,5.05
2022-11-04T22:28:19.302Z,2.80
2022-11-04T22:30:46.599Z,3.10
2022-11-04T22:33:13.689Z,5.80
2022-11-04T22:35:40.873Z,4.32
2022-11-04T22:38:08.302Z,2.78
2022-11-04T22:40:35.450Z,2.38
2022-11-04T22:43:02.511Z,3.10
2022-11-04T22:45:29.489Z,2.47
2022-11-04T22:47:59.428Z,4.85
2022-11-04T22:50:26.332Z,2.80
2022-11-04T22:52:53.172Z,4.28
2022-11-04T22:55:20.202Z,3.42
2022-11-04T22:57:46.949Z,2.53
2022-11-04T23:00:14.558Z,3.83
2022-11-04T23:02:41.453Z,5.60
2022-11-04T23:05:08.735Z,4.50
2022-11-04T23:07:35.502Z,2.53
2022-11-04T23:10:21.184Z,2.92
2022-11-04T23:13:06.872Z,3.65
2022-11-04T23:15:52.753Z,2.08
2022-11-04T23:18:38.147Z,3.25
2022-11-04T23:21:23.123Z,4.35
2022-11-04T23:24:08.823Z,1.63
2022-11-04T23:26:35.888Z,2.63
2022-11-04T23:29:24.395Z,3.05
2022-11-04T23:31:51.311Z,1.42
2022-11-04T23:34:36.746Z,1.70
2022-11-04T23:37:12.781Z,2.42
2022-11-04T23:39:46.708Z,1.50
2022-11-04T23:42:16.454Z,1.02
2022-11-04T23:45:07.468Z,0.85
2022-11-04T23:48:03.678Z,2.50
2022-11-04T23:50:51.495Z,2.22
2022-11-04T23:53:38.251Z,2.10
2022-11-04T23:56:24.696Z,3.10
2022-11-04T23:59:10.257Z,1.75
